sensor_id;sensor_type;location;lat;lon;timestamp;P1;durP1;ratioP1;P2;durP2;ratioP2
37411;SDS011;23278;52.110;6.050;2022-09-03T00:00:10;1.75;;;0.60;;
37411;SDS011;23278;52.110;6.050;2022-09-03T00:02:49;1.95;;;0.40;;
37411;SDS011;23278;52.110;6.050;2022-09-03T00:05:42;2.97;;;0.60;;
37411;SDS011;23278;52.110;6.050;2022-09-03T00:08:36;2.47;;;1.02;;
37411;SDS011;23278;52.110;6.050;2022-09-03T00:11:21;1.30;;;0.90;;
37411;SDS011;23278;52.110;6.050;2022-09-03T00:16:32;0.80;;;0.40;;
37411;SDS011;23278;52.110;6.050;2022-09-03T00:19:09;0.63;;;0.30;;
37411;SDS011;23278;52.110;6.050;2022-09-03T00:24:06;0.88;;;0.40;;
37411;SDS011;23278;52.110;6.050;2022-09-03T00:26:36;0.50;;;0.32;;
37411;SDS011;23278;52.110;6.050;2022-09-03T00:32:24;1.35;;;0.50;;
37411;SDS011;23278;52.110;6.050;2022-09-03T00:35:03;1.35;;;0.60;;
37411;SDS011;23278;52.110;6.050;2022-09-03T00:37:33;1.20;;;0.43;;
37411;SDS011;23278;52.110;6.050;2022-09-03T00:39:59;0.50;;;0.30;;
37411;SDS011;23278;52.110;6.050;2022-09-03T00:43:14;1.85;;;0.50;;
37411;SDS011;23278;52.110;6.050;2022-09-03T01:01:06;0.50;;;0.30;;
37411;SDS011;23278;52.110;6.050;2022-09-03T01:06:23;0.63;;;0.50;;
37411;SDS011;23278;52.110;6.050;2022-09-03T01:09:02;0.80;;;0.50;;
37411;SDS011;23278;52.110;6.050;2022-09-03T01:14:37;0.60;;;0.40;;
37411;SDS011;23278;52.110;6.050;2022-09-03T01:25:53;0.98;;;0.50;;
37411;SDS011;23278;52.110;6.050;2022-09-03T01:32:18;2.70;;;0.50;;
37411;SDS011;23278;52.110;6.050;2022-09-03T01:34:49;1.25;;;0.55;;
37411;SDS011;23278;52.110;6.050;2022-09-03T01:40:32;0.82;;;0.40;;
37411;SDS011;23278;52.110;6.050;2022-09-03T01:43:26;1.05;;;0.40;;
37411;SDS011;23278;52.110;6.050;2022-09-03T01:46:08;1.58;;;0.60;;
37411;SDS011;23278;52.110;6.050;2022-09-03T01:48:51;1.02;;;0.50;;
37411;SDS011;23278;52.110;6.050;2022-09-03T01:51:27;1.73;;;0.80;;
37411;SDS011;23278;52.110;6.050;2022-09-03T02:02:19;0.60;;;0.40;;
37411;SDS011;23278;52.110;6.050;2022-09-03T02:07:39;2.30;;;0.30;;
37411;SDS011;23278;52.110;6.050;2022-09-03T02:10:10;0.70;;;0.40;;
37411;SDS011;23278;52.110;6.050;2022-09-03T02:12:43;1.15;;;0.98;;
37411;SDS011;23278;52.110;6.050;2022-09-03T02:15:17;0.50;;;0.43;;
37411;SDS011;23278;52.110;6.050;2022-09-03T02:17:46;0.70;;;0.50;;
37411;SDS011;23278;52.110;6.050;2022-09-03T02:20:18;2.25;;;0.50;;
37411;SDS011;23278;52.110;6.050;2022-09-03T02:22:46;1.25;;;0.50;;
37411;SDS011;23278;52.110;6.050;2022-09-03T02:25:14;0.68;;;0.40;;
37411;SDS011;23278;52.110;6.050;2022-09-03T02:27:42;0.82;;;0.40;;
37411;SDS011;23278;52.110;6.050;2022-09-03T02:30:09;1.98;;;0.70;;
37411;SDS011;23278;52.110;6.050;2022-09-03T02:32:36;1.08;;;0.63;;
37411;SDS011;23278;52.110;6.050;2022-09-03T02:35:03;0.70;;;0.57;;
37411;SDS011;23278;52.110;6.050;2022-09-03T02:37:29;2.10;;;0.60;;
37411;SDS011;23278;52.110;6.050;2022-09-03T02:39:55;1.33;;;0.68;;
37411;SDS011;23278;52.110;6.050;2022-09-03T02:42:21;1.15;;;0.65;;
37411;SDS011;23278;52.110;6.050;2022-09-03T02:44:49;0.50;;;0.40;;
37411;SDS011;23278;52.110;6.050;2022-09-03T02:47:22;0.30;;;0.30;;
37411;SDS011;23278;52.110;6.050;2022-09-03T02:49:50;2.08;;;0.50;;
37411;SDS011;23278;52.110;6.050;2022-09-03T02:52:15;1.95;;;0.43;;
37411;SDS011;23278;52.110;6.050;2022-09-03T02:54:42;1.17;;;0.50;;
37411;SDS011;23278;52.110;6.050;2022-09-03T02:57:10;0.70;;;0.40;;
37411;SDS011;23278;52.110;6.050;2022-09-03T02:59:38;1.00;;;0.50;;
37411;SDS011;23278;52.110;6.050;2022-09-03T03:02:06;0.90;;;0.60;;
37411;SDS011;23278;52.110;6.050;2022-09-03T03:04:32;0.50;;;0.40;;
37411;SDS011;23278;52.110;6.050;2022-09-03T03:06:58;1.20;;;0.63;;
37411;SDS011;23278;52.110;6.050;2022-09-03T03:09:25;3.55;;;0.50;;
37411;SDS011;23278;52.110;6.050;2022-09-03T03:11:50;0.90;;;0.50;;
37411;SDS011;23278;52.110;6.050;2022-09-03T03:14:19;2.90;;;0.52;;
37411;SDS011;23278;52.110;6.050;2022-09-03T03:16:46;1.15;;;0.45;;
37411;SDS011;23278;52.110;6.050;2022-09-03T03:19:13;2.70;;;0.60;;
37411;SDS011;23278;52.110;6.050;2022-09-03T03:21:39;1.13;;;0.50;;
37411;SDS011;23278;52.110;6.050;2022-09-03T03:24:05;0.73;;;0.50;;
37411;SDS011;23278;52.110;6.050;2022-09-03T03:26:31;1.08;;;0.55;;
37411;SDS011;23278;52.110;6.050;2022-09-03T03:28:59;1.50;;;0.70;;
37411;SDS011;23278;52.110;6.050;2022-09-03T03:31:29;1.42;;;0.55;;
37411;SDS011;23278;52.110;6.050;2022-09-03T03:33:59;0.70;;;0.50;;
37411;SDS011;23278;52.110;6.050;2022-09-03T03:36:27;0.70;;;0.50;;
37411;SDS011;23278;52.110;6.050;2022-09-03T03:38:56;0.90;;;0.50;;
37411;SDS011;23278;52.110;6.050;2022-09-03T03:41:24;1.55;;;0.60;;
37411;SDS011;23278;52.110;6.050;2022-09-03T03:43:52;4.53;;;0.60;;
37411;SDS011;23278;52.110;6.050;2022-09-03T03:46:21;0.75;;;0.50;;
37411;SDS011;23278;52.110;6.050;2022-09-03T03:48:49;0.57;;;0.35;;
37411;SDS011;23278;52.110;6.050;2022-09-03T03:51:16;0.90;;;0.40;;
37411;SDS011;23278;52.110;6.050;2022-09-03T03:53:43;1.20;;;0.88;;
37411;SDS011;23278;52.110;6.050;2022-09-03T03:56:10;0.70;;;0.35;;
37411;SDS011;23278;52.110;6.050;2022-09-03T03:58:39;0.90;;;0.70;;
37411;SDS011;23278;52.110;6.050;2022-09-03T04:01:10;1.20;;;0.60;;
37411;SDS011;23278;52.110;6.050;2022-09-03T04:03:38;0.60;;;0.40;;
37411;SDS011;23278;52.110;6.050;2022-09-03T04:06:04;0.90;;;0.47;;
37411;SDS011;23278;52.110;6.050;2022-09-03T04:08:35;0.80;;;0.50;;
37411;SDS011;23278;52.110;6.050;2022-09-03T04:11:03;1.20;;;0.50;;
37411;SDS011;23278;52.110;6.050;2022-09-03T04:13:31;1.42;;;0.50;;
37411;SDS011;23278;52.110;6.050;2022-09-03T04:15:59;0.80;;;0.47;;
37411;SDS011;23278;52.110;6.050;2022-09-03T04:18:29;1.33;;;0.60;;
37411;SDS011;23278;52.110;6.050;2022-09-03T04:20:59;0.80;;;0.45;;
37411;SDS011;23278;52.110;6.050;2022-09-03T04:23:31;0.70;;;0.57;;
37411;SDS011;23278;52.110;6.050;2022-09-03T04:25:58;2.65;;;0.50;;
37411;SDS011;23278;52.110;6.050;2022-09-03T04:28:24;0.60;;;0.40;;
37411;SDS011;23278;52.110;6.050;2022-09-03T04:30:51;0.40;;;0.30;;
37411;SDS011;23278;52.110;6.050;2022-09-03T04:33:17;1.00;;;0.50;;
37411;SDS011;23278;52.110;6.050;2022-09-03T04:35:43;0.80;;;0.38;;
37411;SDS011;23278;52.110;6.050;2022-09-03T04:38:10;1.30;;;0.40;;
37411;SDS011;23278;52.110;6.050;2022-09-03T04:40:36;1.98;;;0.50;;
37411;SDS011;23278;52.110;6.050;2022-09-03T04:43:02;0.95;;;0.40;;
37411;SDS011;23278;52.110;6.050;2022-09-03T04:45:28;1.35;;;0.50;;
37411;SDS011;23278;52.110;6.050;2022-09-03T04:47:57;0.90;;;0.60;;
37411;SDS011;23278;52.110;6.050;2022-09-03T04:50:28;4.13;;;0.60;;
37411;SDS011;23278;52.110;6.050;2022-09-03T04:52:59;2.65;;;0.70;;
37411;SDS011;23278;52.110;6.050;2022-09-03T04:55:26;1.38;;;0.60;;
37411;SDS011;23278;52.110;6.050;2022-09-03T04:57:53;0.60;;;0.50;;
37411;SDS011;23278;52.110;6.050;2022-09-03T05:00:19;0.70;;;0.50;;
37411;SDS011;23278;52.110;6.050;2022-09-03T05:02:46;0.63;;;0.50;;
37411;SDS011;23278;52.110;6.050;2022-09-03T05:05:13;0.73;;;0.40;;
37411;SDS011;23278;52.110;6.050;2022-09-03T05:07:39;0.73;;;0.45;;
37411;SDS011;23278;52.110;6.050;2022-09-03T05:10:09;0.90;;;0.47;;
37411;SDS011;23278;52.110;6.050;2022-09-03T05:12:45;0.77;;;0.60;;
37411;SDS011;23278;52.110;6.050;2022-09-03T05:15:12;0.82;;;0.47;;
37411;SDS011;23278;52.110;6.050;2022-09-03T05:17:38;1.55;;;0.50;;
37411;SDS011;23278;52.110;6.050;2022-09-03T05:20:04;0.95;;;0.65;;
37411;SDS011;23278;52.110;6.050;2022-09-03T05:22:33;0.60;;;0.45;;
37411;SDS011;23278;52.110;6.050;2022-09-03T05:24:59;0.73;;;0.50;;
37411;SDS011;23278;52.110;6.050;2022-09-03T05:27:25;1.63;;;0.50;;
37411;SDS011;23278;52.110;6.050;2022-09-03T05:29:51;0.95;;;0.40;;
37411;SDS011;23278;52.110;6.050;2022-09-03T05:32:17;2.70;;;0.65;;
37411;SDS011;23278;52.110;6.050;2022-09-03T05:34:42;1.08;;;0.60;;
37411;SDS011;23278;52.110;6.050;2022-09-03T05:37:09;1.30;;;0.70;;
37411;SDS011;23278;52.110;6.050;2022-09-03T05:39:36;0.50;;;0.45;;
37411;SDS011;23278;52.110;6.050;2022-09-03T05:42:02;0.88;;;0.50;;
37411;SDS011;23278;52.110;6.050;2022-09-03T05:44:28;0.60;;;0.60;;
37411;SDS011;23278;52.110;6.050;2022-09-03T05:46:55;2.15;;;0.60;;
37411;SDS011;23278;52.110;6.050;2022-09-03T05:49:21;0.65;;;0.50;;
37411;SDS011;23278;52.110;6.050;2022-09-03T05:51:46;0.98;;;0.70;;
37411;SDS011;23278;52.110;6.050;2022-09-03T05:54:12;0.95;;;0.70;;
37411;SDS011;23278;52.110;6.050;2022-09-03T05:56:38;0.88;;;0.50;;
37411;SDS011;23278;52.110;6.050;2022-09-03T05:59:07;0.82;;;0.50;;
37411;SDS011;23278;52.110;6.050;2022-09-03T06:01:35;0.60;;;0.60;;
37411;SDS011;23278;52.110;6.050;2022-09-03T06:04:04;1.27;;;0.75;;
37411;SDS011;23278;52.110;6.050;2022-09-03T06:06:48;1.17;;;0.50;;
37411;SDS011;23278;52.110;6.050;2022-09-03T06:09:17;2.38;;;0.73;;
37411;SDS011;23278;52.110;6.050;2022-09-03T06:11:44;3.67;;;0.60;;
37411;SDS011;23278;52.110;6.050;2022-09-03T06:14:12;1.05;;;0.60;;
37411;SDS011;23278;52.110;6.050;2022-09-03T06:16:45;1.05;;;0.60;;
37411;SDS011;23278;52.110;6.050;2022-09-03T06:19:17;0.90;;;0.60;;
37411;SDS011;23278;52.110;6.050;2022-09-03T06:21:43;0.95;;;0.60;;
37411;SDS011;23278;52.110;6.050;2022-09-03T06:24:15;0.88;;;0.60;;
37411;SDS011;23278;52.110;6.050;2022-09-03T06:26:43;1.60;;;0.85;;
37411;SDS011;23278;52.110;6.050;2022-09-03T06:29:09;0.50;;;0.50;;
37411;SDS011;23278;52.110;6.050;2022-09-03T06:31:35;1.98;;;0.85;;
37411;SDS011;23278;52.110;6.050;2022-09-03T06:34:02;0.98;;;0.60;;
37411;SDS011;23278;52.110;6.050;2022-09-03T06:36:28;0.68;;;0.60;;
37411;SDS011;23278;52.110;6.050;2022-09-03T06:38:54;1.13;;;0.60;;
37411;SDS011;23278;52.110;6.050;2022-09-03T06:41:22;1.10;;;0.50;;
37411;SDS011;23278;52.110;6.050;2022-09-03T06:43:54;0.73;;;0.55;;
37411;SDS011;23278;52.110;6.050;2022-09-03T06:46:23;4.28;;;1.65;;
37411;SDS011;23278;52.110;6.050;2022-09-03T06:48:50;2.05;;;0.65;;
37411;SDS011;23278;52.110;6.050;2022-09-03T06:51:17;1.27;;;0.98;;
37411;SDS011;23278;52.110;6.050;2022-09-03T06:53:49;5.80;;;0.68;;
37411;SDS011;23278;52.110;6.050;2022-09-03T06:56:17;1.02;;;0.50;;
37411;SDS011;23278;52.110;6.050;2022-09-03T06:58:50;0.70;;;0.60;;
37411;SDS011;23278;52.110;6.050;2022-09-03T07:01:17;3.80;;;0.50;;
37411;SDS011;23278;52.110;6.050;2022-09-03T07:03:45;1.08;;;0.45;;
37411;SDS011;23278;52.110;6.050;2022-09-03T07:06:14;0.95;;;0.50;;
37411;SDS011;23278;52.110;6.050;2022-09-03T07:08:41;1.95;;;0.55;;
37411;SDS011;23278;52.110;6.050;2022-09-03T07:11:09;1.13;;;0.30;;
37411;SDS011;23278;52.110;6.050;2022-09-03T07:13:37;1.15;;;0.50;;
37411;SDS011;23278;52.110;6.050;2022-09-03T07:16:10;1.15;;;0.40;;
37411;SDS011;23278;52.110;6.050;2022-09-03T07:18:38;1.13;;;0.40;;
37411;SDS011;23278;52.110;6.050;2022-09-03T07:21:24;1.08;;;0.40;;
37411;SDS011;23278;52.110;6.050;2022-09-03T07:23:52;1.02;;;0.52;;
37411;SDS011;23278;52.110;6.050;2022-09-03T07:26:20;0.80;;;0.47;;
37411;SDS011;23278;52.110;6.050;2022-09-03T07:28:47;0.50;;;0.40;;
37411;SDS011;23278;52.110;6.050;2022-09-03T07:31:15;1.60;;;0.70;;
37411;SDS011;23278;52.110;6.050;2022-09-03T07:33:54;2.60;;;0.60;;
37411;SDS011;23278;52.110;6.050;2022-09-03T07:36:22;2.65;;;0.60;;
37411;SDS011;23278;52.110;6.050;2022-09-03T07:38:49;1.10;;;0.50;;
37411;SDS011;23278;52.110;6.050;2022-09-03T07:41:15;1.75;;;0.60;;
37411;SDS011;23278;52.110;6.050;2022-09-03T07:43:45;0.93;;;0.47;;
37411;SDS011;23278;52.110;6.050;2022-09-03T07:46:15;0.65;;;0.35;;
37411;SDS011;23278;52.110;6.050;2022-09-03T07:48:49;1.00;;;0.40;;
37411;SDS011;23278;52.110;6.050;2022-09-03T07:51:17;1.50;;;0.50;;
37411;SDS011;23278;52.110;6.050;2022-09-03T07:53:44;1.05;;;0.40;;
37411;SDS011;23278;52.110;6.050;2022-09-03T07:56:11;4.65;;;1.05;;
37411;SDS011;23278;52.110;6.050;2022-09-03T07:58:38;0.70;;;0.40;;
37411;SDS011;23278;52.110;6.050;2022-09-03T08:01:08;0.80;;;0.40;;
37411;SDS011;23278;52.110;6.050;2022-09-03T08:03:43;2.60;;;0.40;;
37411;SDS011;23278;52.110;6.050;2022-09-03T08:06:11;6.22;;;0.40;;
37411;SDS011;23278;52.110;6.050;2022-09-03T08:08:40;1.15;;;0.40;;
37411;SDS011;23278;52.110;6.050;2022-09-03T08:13:42;1.08;;;0.40;;
37411;SDS011;23278;52.110;6.050;2022-09-03T08:16:09;0.77;;;0.37;;
37411;SDS011;23278;52.110;6.050;2022-09-03T08:18:37;1.42;;;0.50;;
37411;SDS011;23278;52.110;6.050;2022-09-03T08:21:04;1.10;;;0.40;;
37411;SDS011;23278;52.110;6.050;2022-09-03T08:23:38;0.65;;;0.30;;
37411;SDS011;23278;52.110;6.050;2022-09-03T08:26:05;1.00;;;0.40;;
37411;SDS011;23278;52.110;6.050;2022-09-03T08:28:32;3.65;;;0.43;;
37411;SDS011;23278;52.110;6.050;2022-09-03T08:31:06;0.60;;;0.40;;
37411;SDS011;23278;52.110;6.050;2022-09-03T08:33:40;1.63;;;0.40;;
37411;SDS011;23278;52.110;6.050;2022-09-03T08:36:09;1.15;;;0.40;;
37411;SDS011;23278;52.110;6.050;2022-09-03T08:38:37;0.70;;;0.40;;
37411;SDS011;23278;52.110;6.050;2022-09-03T08:41:05;0.68;;;0.40;;
37411;SDS011;23278;52.110;6.050;2022-09-03T08:43:38;0.97;;;0.40;;
37411;SDS011;23278;52.110;6.050;2022-09-03T08:46:25;1.23;;;0.50;;
37411;SDS011;23278;52.110;6.050;2022-09-03T08:48:57;2.13;;;0.40;;
37411;SDS011;23278;52.110;6.050;2022-09-03T08:51:24;0.85;;;0.38;;
37411;SDS011;23278;52.110;6.050;2022-09-03T08:53:54;0.88;;;0.30;;
37411;SDS011;23278;52.110;6.050;2022-09-03T08:56:26;1.02;;;0.40;;
37411;SDS011;23278;52.110;6.050;2022-09-03T08:58:53;1.00;;;0.40;;
37411;SDS011;23278;52.110;6.050;2022-09-03T09:16:08;0.60;;;0.40;;
37411;SDS011;23278;52.110;6.050;2022-09-03T09:21:49;1.25;;;0.47;;
37411;SDS011;23278;52.110;6.050;2022-09-03T09:24:24;1.20;;;0.40;;
37411;SDS011;23278;52.110;6.050;2022-09-03T09:27:03;0.93;;;0.40;;
37411;SDS011;23278;52.110;6.050;2022-09-03T09:29:31;0.90;;;0.40;;
37411;SDS011;23278;52.110;6.050;2022-09-03T09:32:00;0.85;;;0.35;;
37411;SDS011;23278;52.110;6.050;2022-09-03T09:34:26;2.75;;;0.40;;
37411;SDS011;23278;52.110;6.050;2022-09-03T09:36:53;0.50;;;0.30;;
37411;SDS011;23278;52.110;6.050;2022-09-03T09:39:20;0.93;;;0.30;;
37411;SDS011;23278;52.110;6.050;2022-09-03T09:42:00;1.90;;;0.47;;
37411;SDS011;23278;52.110;6.050;2022-09-03T09:44:32;0.95;;;0.32;;
37411;SDS011;23278;52.110;6.050;2022-09-03T09:47:07;4.65;;;0.32;;
37411;SDS011;23278;52.110;6.050;2022-09-03T09:52:24;0.90;;;0.45;;
37411;SDS011;23278;52.110;6.050;2022-09-03T09:54:53;0.93;;;0.50;;
37411;SDS011;23278;52.110;6.050;2022-09-03T09:57:48;0.85;;;0.40;;
37411;SDS011;23278;52.110;6.050;2022-09-03T10:00:18;1.23;;;0.60;;
37411;SDS011;23278;52.110;6.050;2022-09-03T10:02:47;1.15;;;0.40;;
37411;SDS011;23278;52.110;6.050;2022-09-03T10:05:20;1.48;;;0.30;;
37411;SDS011;23278;52.110;6.050;2022-09-03T10:08:33;1.33;;;0.30;;
37411;SDS011;23278;52.110;6.050;2022-09-03T10:10:46;2.80;;;0.40;;
37411;SDS011;23278;52.110;6.050;2022-09-03T10:19:10;0.30;;;0.30;;
37411;SDS011;23278;52.110;6.050;2022-09-03T10:21:48;0.77;;;0.30;;
37411;SDS011;23278;52.110;6.050;2022-09-03T10:24:48;3.53;;;0.40;;
37411;SDS011;23278;52.110;6.050;2022-09-03T10:27:22;1.08;;;0.38;;
37411;SDS011;23278;52.110;6.050;2022-09-03T10:29:48;0.40;;;0.30;;
37411;SDS011;23278;52.110;6.050;2022-09-03T10:32:19;2.47;;;0.57;;
37411;SDS011;23278;52.110;6.050;2022-09-03T10:37:43;1.48;;;0.40;;
37411;SDS011;23278;52.110;6.050;2022-09-03T10:45:21;0.50;;;0.20;;
37411;SDS011;23278;52.110;6.050;2022-09-03T11:07:01;1.13;;;0.40;;
37411;SDS011;23278;52.110;6.050;2022-09-03T11:12:26;1.10;;;0.30;;
37411;SDS011;23278;52.110;6.050;2022-09-03T11:15:04;1.23;;;0.30;;
37411;SDS011;23278;52.110;6.050;2022-09-03T11:17:39;0.47;;;0.30;;
37411;SDS011;23278;52.110;6.050;2022-09-03T11:20:24;1.38;;;0.45;;
37411;SDS011;23278;52.110;6.050;2022-09-03T11:22:59;2.17;;;0.30;;
37411;SDS011;23278;52.110;6.050;2022-09-03T11:25:34;1.02;;;0.38;;
37411;SDS011;23278;52.110;6.050;2022-09-03T11:28:17;0.60;;;0.30;;
37411;SDS011;23278;52.110;6.050;2022-09-03T11:33:43;1.42;;;0.30;;
37411;SDS011;23278;52.110;6.050;2022-09-03T11:36:16;0.55;;;0.30;;
37411;SDS011;23278;52.110;6.050;2022-09-03T11:38:52;1.58;;;0.30;;
37411;SDS011;23278;52.110;6.050;2022-09-03T11:43:50;3.88;;;0.30;;
37411;SDS011;23278;52.110;6.050;2022-09-03T11:48:46;1.65;;;0.38;;
37411;SDS011;23278;52.110;6.050;2022-09-03T11:51:35;1.57;;;0.30;;
37411;SDS011;23278;52.110;6.050;2022-09-03T11:56:42;0.40;;;0.22;;
37411;SDS011;23278;52.110;6.050;2022-09-03T12:01:42;1.98;;;0.40;;
37411;SDS011;23278;52.110;6.050;2022-09-03T12:04:16;1.73;;;0.30;;
37411;SDS011;23278;52.110;6.050;2022-09-03T12:06:48;3.33;;;0.30;;
37411;SDS011;23278;52.110;6.050;2022-09-03T12:12:29;0.68;;;0.40;;
37411;SDS011;23278;52.110;6.050;2022-09-03T12:15:26;1.30;;;0.28;;
37411;SDS011;23278;52.110;6.050;2022-09-03T12:18:20;1.13;;;0.45;;
37411;SDS011;23278;52.110;6.050;2022-09-03T12:26:07;1.65;;;0.40;;
37411;SDS011;23278;52.110;6.050;2022-09-03T12:28:39;0.95;;;0.43;;
37411;SDS011;23278;52.110;6.050;2022-09-03T12:31:09;1.05;;;0.30;;
37411;SDS011;23278;52.110;6.050;2022-09-03T12:33:58;1.67;;;0.30;;
37411;SDS011;23278;52.110;6.050;2022-09-03T12:36:48;0.65;;;0.30;;
37411;SDS011;23278;52.110;6.050;2022-09-03T12:39:17;3.80;;;0.20;;
37411;SDS011;23278;52.110;6.050;2022-09-03T12:42:01;1.80;;;0.30;;
37411;SDS011;23278;52.110;6.050;2022-09-03T12:47:02;1.88;;;0.52;;
37411;SDS011;23278;52.110;6.050;2022-09-03T12:49:34;0.65;;;0.30;;
37411;SDS011;23278;52.110;6.050;2022-09-03T12:52:06;0.88;;;0.30;;
37411;SDS011;23278;52.110;6.050;2022-09-03T12:55:00;1.88;;;0.40;;
37411;SDS011;23278;52.110;6.050;2022-09-03T12:58:17;0.63;;;0.28;;
37411;SDS011;23278;52.110;6.050;2022-09-03T13:00:20;1.67;;;0.30;;
37411;SDS011;23278;52.110;6.050;2022-09-03T13:03:01;1.00;;;0.40;;
37411;SDS011;23278;52.110;6.050;2022-09-03T13:05:35;1.27;;;0.30;;
37411;SDS011;23278;52.110;6.050;2022-09-03T13:08:09;1.00;;;0.50;;
37411;SDS011;23278;52.110;6.050;2022-09-03T13:10:41;1.10;;;0.30;;
37411;SDS011;23278;52.110;6.050;2022-09-03T13:13:29;0.75;;;0.30;;
37411;SDS011;23278;52.110;6.050;2022-09-03T13:21:28;1.13;;;0.50;;
37411;SDS011;23278;52.110;6.050;2022-09-03T13:24:21;1.15;;;0.38;;
37411;SDS011;23278;52.110;6.050;2022-09-03T13:30:19;1.52;;;0.40;;
37411;SDS011;23278;52.110;6.050;2022-09-03T13:38:17;1.15;;;0.30;;
37411;SDS011;23278;52.110;6.050;2022-09-03T13:41:05;0.50;;;0.30;;
37411;SDS011;23278;52.110;6.050;2022-09-03T13:43:47;2.58;;;0.30;;
37411;SDS011;23278;52.110;6.050;2022-09-03T13:46:25;1.60;;;0.40;;
37411;SDS011;23278;52.110;6.050;2022-09-03T13:48:55;0.73;;;0.32;;
37411;SDS011;23278;52.110;6.050;2022-09-03T13:51:49;1.60;;;0.30;;
37411;SDS011;23278;52.110;6.050;2022-09-03T13:56:56;1.20;;;0.40;;
37411;SDS011;23278;52.110;6.050;2022-09-03T13:59:27;0.40;;;0.20;;
37411;SDS011;23278;52.110;6.050;2022-09-03T14:07:23;1.00;;;0.30;;
37411;SDS011;23278;52.110;6.050;2022-09-03T14:10:09;0.70;;;0.35;;
37411;SDS011;23278;52.110;6.050;2022-09-03T14:12:46;1.45;;;0.47;;
37411;SDS011;23278;52.110;6.050;2022-09-03T14:15:30;2.20;;;0.40;;
37411;SDS011;23278;52.110;6.050;2022-09-03T14:24:13;1.98;;;0.40;;
37411;SDS011;23278;52.110;6.050;2022-09-03T14:26:53;3.53;;;0.38;;
37411;SDS011;23278;52.110;6.050;2022-09-03T14:29:35;1.17;;;0.30;;
37411;SDS011;23278;52.110;6.050;2022-09-03T14:45:51;0.80;;;0.40;;
37411;SDS011;23278;52.110;6.050;2022-09-03T14:51:48;0.65;;;0.40;;
37411;SDS011;23278;52.110;6.050;2022-09-03T15:03:02;2.15;;;0.30;;
37411;SDS011;23278;52.110;6.050;2022-09-03T15:10:51;0.40;;;0.40;;
37411;SDS011;23278;52.110;6.050;2022-09-03T15:13:23;0.60;;;0.40;;
37411;SDS011;23278;52.110;6.050;2022-09-03T15:27:07;1.15;;;0.38;;
37411;SDS011;23278;52.110;6.050;2022-09-03T15:30:00;0.80;;;0.40;;
37411;SDS011;23278;52.110;6.050;2022-09-03T15:33:08;0.60;;;0.40;;
37411;SDS011;23278;52.110;6.050;2022-09-03T15:38:40;1.02;;;0.40;;
37411;SDS011;23278;52.110;6.050;2022-09-03T15:44:17;2.88;;;0.60;;
37411;SDS011;23278;52.110;6.050;2022-09-03T15:46:47;1.13;;;0.50;;
37411;SDS011;23278;52.110;6.050;2022-09-03T15:57:39;0.93;;;0.50;;
37411;SDS011;23278;52.110;6.050;2022-09-03T16:00:15;2.80;;;0.47;;
37411;SDS011;23278;52.110;6.050;2022-09-03T16:02:50;1.25;;;0.30;;
37411;SDS011;23278;52.110;6.050;2022-09-03T16:05:41;1.58;;;0.40;;
37411;SDS011;23278;52.110;6.050;2022-09-03T16:08:18;1.55;;;0.50;;
37411;SDS011;23278;52.110;6.050;2022-09-03T16:11:21;2.15;;;0.32;;
37411;SDS011;23278;52.110;6.050;2022-09-03T16:16:56;2.15;;;0.30;;
37411;SDS011;23278;52.110;6.050;2022-09-03T16:19:33;0.75;;;0.40;;
37411;SDS011;23278;52.110;6.050;2022-09-03T16:22:13;1.80;;;0.60;;
37411;SDS011;23278;52.110;6.050;2022-09-03T16:27:27;0.90;;;0.50;;
37411;SDS011;23278;52.110;6.050;2022-09-03T16:29:58;1.25;;;0.65;;
37411;SDS011;23278;52.110;6.050;2022-09-03T16:35:08;1.60;;;0.40;;
37411;SDS011;23278;52.110;6.050;2022-09-03T16:40:36;0.65;;;0.35;;
37411;SDS011;23278;52.110;6.050;2022-09-03T16:46:49;0.90;;;0.40;;
37411;SDS011;23278;52.110;6.050;2022-09-03T16:49:03;2.90;;;0.30;;
37411;SDS011;23278;52.110;6.050;2022-09-03T16:51:55;1.80;;;0.50;;
37411;SDS011;23278;52.110;6.050;2022-09-03T16:54:49;2.85;;;0.50;;
37411;SDS011;23278;52.110;6.050;2022-09-03T17:00:22;0.75;;;0.40;;
37411;SDS011;23278;52.110;6.050;2022-09-03T17:08:05;3.92;;;0.40;;
37411;SDS011;23278;52.110;6.050;2022-09-03T17:10:58;1.53;;;0.77;;
37411;SDS011;23278;52.110;6.050;2022-09-03T17:13:48;0.80;;;0.50;;
37411;SDS011;23278;52.110;6.050;2022-09-03T17:16:49;1.58;;;0.40;;
37411;SDS011;23278;52.110;6.050;2022-09-03T17:19:45;1.85;;;0.40;;
37411;SDS011;23278;52.110;6.050;2022-09-03T17:24:57;0.65;;;0.45;;
37411;SDS011;23278;52.110;6.050;2022-09-03T17:36:07;1.08;;;0.50;;
37411;SDS011;23278;52.110;6.050;2022-09-03T17:41:45;1.10;;;0.63;;
37411;SDS011;23278;52.110;6.050;2022-09-03T17:50:13;1.63;;;0.40;;
37411;SDS011;23278;52.110;6.050;2022-09-03T18:12:02;0.80;;;0.40;;
37411;SDS011;23278;52.110;6.050;2022-09-03T18:14:34;2.10;;;0.50;;
37411;SDS011;23278;52.110;6.050;2022-09-03T18:17:12;1.67;;;0.50;;
37411;SDS011;23278;52.110;6.050;2022-09-03T18:19:46;1.38;;;0.50;;
37411;SDS011;23278;52.110;6.050;2022-09-03T18:22:49;2.95;;;0.60;;
37411;SDS011;23278;52.110;6.050;2022-09-03T18:26:09;10.02;;;0.75;;
37411;SDS011;23278;52.110;6.050;2022-09-03T18:29:00;2.15;;;0.40;;
37411;SDS011;23278;52.110;6.050;2022-09-03T18:31:47;3.50;;;0.63;;
37411;SDS011;23278;52.110;6.050;2022-09-03T18:34:33;0.50;;;0.40;;
37411;SDS011;23278;52.110;6.050;2022-09-03T18:37:20;0.85;;;0.50;;
37411;SDS011;23278;52.110;6.050;2022-09-03T18:40:08;1.65;;;0.77;;
37411;SDS011;23278;52.110;6.050;2022-09-03T18:45:50;2.08;;;0.52;;
37411;SDS011;23278;52.110;6.050;2022-09-03T18:48:53;5.13;;;0.70;;
37411;SDS011;23278;52.110;6.050;2022-09-03T18:55:02;4.30;;;0.80;;
37411;SDS011;23278;52.110;6.050;2022-09-03T19:01:06;1.75;;;0.70;;
37411;SDS011;23278;52.110;6.050;2022-09-03T19:04:06;3.67;;;1.15;;
37411;SDS011;23278;52.110;6.050;2022-09-03T19:07:08;4.13;;;1.00;;
37411;SDS011;23278;52.110;6.050;2022-09-03T19:22:18;2.13;;;0.63;;
37411;SDS011;23278;52.110;6.050;2022-09-03T19:25:12;1.27;;;0.55;;
37411;SDS011;23278;52.110;6.050;2022-09-03T19:41:01;3.08;;;0.73;;
37411;SDS011;23278;52.110;6.050;2022-09-03T19:46:59;3.40;;;1.70;;
37411;SDS011;23278;52.110;6.050;2022-09-03T19:55:56;3.97;;;1.75;;
37411;SDS011;23278;52.110;6.050;2022-09-03T19:59:17;7.97;;;3.17;;
37411;SDS011;23278;52.110;6.050;2022-09-03T20:02:01;4.30;;;2.20;;
37411;SDS011;23278;52.110;6.050;2022-09-03T20:04:57;4.30;;;1.90;;
37411;SDS011;23278;52.110;6.050;2022-09-03T20:07:43;4.70;;;1.23;;
37411;SDS011;23278;52.110;6.050;2022-09-03T20:10:29;3.13;;;1.10;;
37411;SDS011;23278;52.110;6.050;2022-09-03T20:13:01;6.78;;;1.42;;
37411;SDS011;23278;52.110;6.050;2022-09-03T20:15:41;3.88;;;1.38;;
37411;SDS011;23278;52.110;6.050;2022-09-03T20:26:12;2.47;;;1.40;;
37411;SDS011;23278;52.110;6.050;2022-09-03T20:31:23;1.83;;;0.90;;
37411;SDS011;23278;52.110;6.050;2022-09-03T20:33:59;1.88;;;1.00;;
37411;SDS011;23278;52.110;6.050;2022-09-03T20:42:07;2.25;;;0.80;;
37411;SDS011;23278;52.110;6.050;2022-09-03T20:44:39;1.02;;;0.60;;
37411;SDS011;23278;52.110;6.050;2022-09-03T20:47:24;3.20;;;0.63;;
37411;SDS011;23278;52.110;6.050;2022-09-03T20:50:26;3.35;;;0.60;;
37411;SDS011;23278;52.110;6.050;2022-09-03T20:53:14;2.75;;;0.80;;
37411;SDS011;23278;52.110;6.050;2022-09-03T20:55:47;1.00;;;0.52;;
37411;SDS011;23278;52.110;6.050;2022-09-03T21:04:24;4.45;;;0.90;;
37411;SDS011;23278;52.110;6.050;2022-09-03T21:10:49;1.48;;;0.85;;
37411;SDS011;23278;52.110;6.050;2022-09-03T21:16:03;1.13;;;0.68;;
37411;SDS011;23278;52.110;6.050;2022-09-03T21:18:43;4.82;;;1.00;;
37411;SDS011;23278;52.110;6.050;2022-09-03T21:24:04;1.65;;;0.82;;
37411;SDS011;23278;52.110;6.050;2022-09-03T21:26:40;1.30;;;0.65;;
37411;SDS011;23278;52.110;6.050;2022-09-03T21:32:03;1.30;;;0.80;;
37411;SDS011;23278;52.110;6.050;2022-09-03T21:34:39;2.97;;;1.05;;